Terminal Aerodrome Forecast
Issued by NWS

Home | Current Version | Previous Version | Graphics & Text | Print | Product List | Glossary On
Versions: 1 2 3 4 5 6 7 8 9 10 11 12 13 14 15
000
FTUS41 KCLE 302300
TAFFDY
TAF
KFDY 302338Z 0100/0124 35005KT P6SM -SHRA BKN025 OVC040
     FM010300 35005KT P6SM BKN030
     FM010900 35005KT 5SM BR SCT060
     FM011200 35006KT P6SM SCT050=

USA.gov is the U.S. government's official web portal to all federal, state and local government web resources and services.